Time;durP1;ratioP1;P1;durP2;ratioP2;P2;SDS_P1;SDS_P2;PMS_P1;PMS_P2;Temp;Humidity;BMP_temperature;BMP_pressure;BME280_temperature;BME280_humidity;BME280_pressure;Samples;Min_cycle;Max_cycle;Signal;HPM_P1;HPM_P2
2021/11/22 00:01:14;;;;;;;;;2.75;2.75;;;;;21.46;37.54;101178.53;5098034;27;45700;-50
2021/11/22 00:03:40;;;;;;;;;4.00;2.50;;;;;21.47;37.18;101174.97;5097926;27;45421;-50
2021/11/22 00:06:05;;;;;;;;;2.75;2.75;;;;;21.47;37.66;101185.50;5097678;27;45461;-57
2021/11/22 00:08:31;;;;;;;;;2.50;1.25;;;;;21.46;37.45;101175.91;5079683;27;45361;-59
2021/11/22 00:10:56;;;;;;;;;3.00;1.50;;;;;21.44;37.67;101178.63;5097977;27;45305;-50
2021/11/22 00:13:23;;;;;;;;;3.00;1.75;;;;;21.45;37.45;101179.47;5096696;27;45300;-51
2021/11/22 00:15:51;;;;;;;;;3.50;2.00;;;;;21.43;37.29;101176.91;5097649;27;45180;-51
2021/11/22 00:18:16;;;;;;;;;3.00;3.00;;;;;21.43;37.61;101186.63;5097725;27;45390;-46
2021/11/22 00:20:42;;;;;;;;;2.75;2.00;;;;;21.40;37.29;101184.16;5098059;27;45295;-54
2021/11/22 00:23:07;;;;;;;;;3.00;3.00;;;;;21.38;37.03;101180.72;5078946;27;46003;-47
2021/11/22 00:25:32;;;;;;;;;3.25;1.50;;;;;21.34;37.18;101180.06;5096614;27;45563;-46
2021/11/22 00:27:58;;;;;;;;;4.75;3.00;;;;;21.33;37.45;101188.91;5079595;27;46372;-50
2021/11/22 00:30:23;;;;;;;;;4.00;3.00;;;;;21.29;37.59;101182.06;5097024;27;45577;-53
2021/11/22 00:32:49;;;;;;;;;4.00;2.25;;;;;21.26;37.49;101184.88;5097154;27;46595;-55
2021/11/22 00:35:14;;;;;;;;;4.25;1.50;;;;;21.25;37.69;101186.66;5096564;27;45378;-50
2021/11/22 00:37:49;;;;;;;;;1.50;1.50;;;;;21.22;37.35;101180.69;5097266;27;45379;-53
2021/11/22 00:40:15;;;;;;;;;1.50;1.50;;;;;21.19;37.72;101187.00;5097290;27;45311;-61
2021/11/22 00:42:44;;;;;;;;;3.00;3.00;;;;;21.16;37.33;101182.75;5097215;27;46419;-61
2021/11/22 00:45:09;;;;;;;;;4.25;2.50;;;;;21.15;37.39;101193.34;5097250;27;45358;-53
2021/11/22 00:47:36;;;;;;;;;4.00;2.50;;;;;21.12;37.28;101188.22;5096705;27;45402;-54
2021/11/22 00:50:03;;;;;;;;;1.75;1.75;;;;;21.11;37.63;101194.47;5097164;27;45365;-45
2021/11/22 00:52:29;;;;;;;;;3.00;3.00;;;;;21.06;37.57;101191.19;5096883;27;45596;-48
2021/11/22 00:54:54;;;;;;;;;2.50;2.25;;;;;21.06;37.42;101196.47;5096631;27;45432;-52
2021/11/22 00:57:20;;;;;;;;;2.25;2.00;;;;;21.05;37.52;101210.56;5097133;27;45364;-44
2021/11/22 00:59:45;;;;;;;;;2.50;1.50;;;;;21.02;37.38;101214.22;5097149;27;45661;-43
2021/11/22 01:02:10;;;;;;;;;3.00;3.00;;;;;20.97;37.46;101203.06;5097069;27;46628;-44
2021/11/22 01:04:37;;;;;;;;;4.00;1.50;;;;;20.98;37.56;101216.19;5078346;27;45886;-45
2021/11/22 01:07:03;;;;;;;;;2.50;2.00;;;;;20.96;37.64;101211.88;5096806;27;45362;-47
2021/11/22 01:09:29;;;;;;;;;4.00;2.25;;;;;20.94;37.77;101213.78;5097131;27;45240;-44
2021/11/22 01:11:54;;;;;;;;;2.25;1.25;;;;;20.92;37.32;101224.38;5096864;27;45580;-51
2021/11/22 01:14:20;;;;;;;;;2.00;2.00;;;;;20.91;37.77;101220.03;5096775;27;45212;-41
2021/11/22 01:16:45;;;;;;;;;3.00;3.00;;;;;20.87;37.52;101215.88;5096953;27;45225;-43
2021/11/22 01:19:10;;;;;;;;;3.00;2.00;;;;;20.86;37.53;101227.34;5097399;27;45430;-43
2021/11/22 01:21:36;;;;;;;;;2.25;2.25;;;;;20.86;37.40;101232.59;5096607;27;45646;-43
2021/11/22 01:24:01;;;;;;;;;2.00;2.00;;;;;20.82;37.88;101231.03;5096461;27;45418;-42
2021/11/22 01:26:26;;;;;;;;;1.00;1.00;;;;;20.82;37.69;101233.69;5096772;27;45449;-42
2021/11/22 01:28:52;;;;;;;;;3.25;3.00;;;;;20.80;37.58;101239.03;5096914;27;45641;-47
2021/11/22 01:31:18;;;;;;;;;5.25;3.75;;;;;20.79;37.50;101241.72;5096422;27;46607;-44
2021/11/22 01:33:44;;;;;;;;;2.25;2.25;;;;;20.77;37.62;101238.34;5096732;27;45428;-47
2021/11/22 01:36:09;;;;;;;;;3.25;2.25;;;;;20.76;37.33;101249.81;5078221;27;45372;-46
2021/11/22 01:38:35;;;;;;;;;2.25;2.25;;;;;20.74;37.24;101243.72;5096748;27;45288;-44
2021/11/22 01:41:01;;;;;;;;;4.50;2.00;;;;;20.73;37.32;101242.00;5096348;27;46508;-47
2021/11/22 01:43:28;;;;;;;;;2.75;2.75;;;;;20.69;37.64;101236.88;5096351;27;45908;-56
2021/11/22 01:45:54;;;;;;;;;3.25;2.00;;;;;20.69;37.80;101236.88;5096549;27;45367;-48
2021/11/22 01:48:20;;;;;;;;;3.00;3.00;;;;;20.68;37.41;101245.72;5098709;27;45279;-46
2021/11/22 01:50:47;;;;;;;;;3.00;3.00;;;;;20.65;37.61;101243.25;5100081;27;45291;-46
2021/11/22 01:53:15;;;;;;;;;2.75;2.75;;;;;20.65;37.24;101250.28;5081824;27;45815;-42
2021/11/22 01:55:41;;;;;;;;;2.75;2.75;;;;;20.63;37.26;101253.00;5098593;27;45358;-43
2021/11/22 01:58:06;;;;;;;;;1.25;1.25;;;;;20.62;37.30;101246.03;5100295;27;45629;-44
2021/11/22 02:00:37;;;;;;;;;3.00;1.75;;;;;20.60;37.50;101258.41;5099830;27;45537;-54
2021/11/22 02:03:05;;;;;;;;;1.50;1.50;;;;;20.59;37.09;101261.97;5099577;27;45337;-52
2021/11/22 02:05:31;;;;;;;;;1.00;1.00;;;;;20.60;37.62;101262.84;5099603;27;45482;-52
2021/11/22 02:07:57;;;;;;;;;5.00;3.50;;;;;20.57;37.19;101258.56;5099619;27;45231;-49
2021/11/22 02:10:23;;;;;;;;;2.75;2.00;;;;;20.55;37.18;101257.81;5099533;27;46343;-47
2021/11/22 02:12:49;;;;;;;;;4.00;1.50;;;;;20.53;37.32;101252.59;5099609;27;45667;-54
2021/11/22 02:15:16;;;;;;;;;2.00;2.00;;;;;20.54;37.08;101264.00;5099925;27;45259;-49
2021/11/22 02:17:45;;;;;;;;;6.75;3.25;;;;;20.52;37.23;101263.22;5099813;27;45563;-55
2021/11/22 02:20:13;;;;;;;;;2.25;2.25;;;;;20.50;37.27;101262.44;5099472;27;46625;-59
2021/11/22 02:22:40;;;;;;;;;4.50;3.00;;;;;20.50;37.60;101267.69;5099428;27;45636;-62
2021/11/22 02:25:08;;;;;;;;;2.25;2.00;;;;;20.47;37.04;101270.47;5099595;27;45253;-59
2021/11/22 02:27:35;;;;;;;;;3.00;3.00;;;;;20.48;37.15;101272.19;5099654;27;45497;-62
2021/11/22 02:30:01;;;;;;;;;3.00;3.00;;;;;20.47;37.52;101283.63;5099185;27;46356;-62
2021/11/22 02:32:26;;;;;;;;;6.00;4.00;;;;;20.47;37.19;101273.97;5099445;27;45346;-60
2021/11/22 02:34:52;;;;;;;;;4.00;2.00;;;;;20.45;37.13;101277.63;5099525;27;45388;-60
2021/11/22 02:37:17;;;;;;;;;2.00;2.00;;;;;20.45;37.19;101285.50;5099991;27;45489;-63
2021/11/22 02:39:43;;;;;;;;;2.25;2.00;;;;;20.43;37.07;101279.47;5099236;27;45328;-62
2021/11/22 02:42:13;;;;;;;;;2.00;2.00;;;;;20.43;37.57;101274.19;5099080;27;45422;-64
2021/11/22 02:44:38;;;;;;;;;1.75;1.75;;;;;20.42;37.15;101280.38;5099133;27;45480;-61
2021/11/22 02:47:04;;;;;;;;;3.25;2.00;;;;;20.40;37.32;101272.53;5099607;27;45430;-58
2021/11/22 02:49:29;;;;;;;;;3.00;3.00;;;;;20.39;37.56;101276.97;5099090;27;45422;-58
2021/11/22 02:51:54;;;;;;;;;1.00;1.00;;;;;20.37;37.43;101273.53;5099029;27;45352;-57
2021/11/22 02:54:20;;;;;;;;;3.00;3.00;;;;;20.38;37.57;101275.25;5099310;27;45339;-43
2021/11/22 02:56:46;;;;;;;;;4.00;2.50;;;;;20.37;37.50;101273.53;5099587;27;45628;-61
2021/11/22 02:59:11;;;;;;;;;3.25;2.00;;;;;20.37;37.53;101277.97;5097348;27;46388;-62
2021/11/22 03:01:38;;;;;;;;;3.00;3.00;;;;;20.36;37.18;101281.53;5098745;27;45417;-61
2021/11/22 03:04:04;;;;;;;;;3.00;3.00;;;;;20.34;37.41;101283.38;5099042;27;45374;-54
2021/11/22 03:06:29;;;;;;;;;3.25;3.25;;;;;20.33;36.79;101282.53;5099009;27;45285;-62
2021/11/22 03:08:54;;;;;;;;;2.50;2.50;;;;;20.34;37.06;101288.63;5098709;27;45514;-62
2021/11/22 03:11:20;;;;;;;;;4.50;3.00;;;;;20.33;37.28;101293.06;5098899;27;45324;-61
2021/11/22 03:13:47;;;;;;;;;3.25;2.75;;;;;20.31;37.12;101289.66;5098443;27;45484;-62
2021/11/22 03:16:14;;;;;;;;;2.25;2.00;;;;;20.31;37.39;101299.31;5097577;27;45317;-56
2021/11/22 03:18:39;;;;;;;;;5.00;3.00;;;;;20.30;36.93;101285.31;5080321;27;45355;-54
2021/11/22 03:21:06;;;;;;;;;3.00;2.00;;;;;20.29;37.45;101302.03;5098578;27;45369;-47
2021/11/22 03:23:33;;;;;;;;;4.00;3.00;;;;;20.31;37.15;101305.44;5098802;27;45410;-51
2021/11/22 03:25:59;;;;;;;;;4.75;2.00;;;;;20.33;37.54;101298.34;5080434;27;45531;-55
2021/11/22 03:28:25;;;;;;;;;3.00;3.00;;;;;20.34;37.50;101307.91;5098266;27;45796;-52
2021/11/22 03:30:52;;;;;;;;;4.00;2.50;;;;;20.39;37.11;101319.09;5080144;27;45412;-44
2021/11/22 03:33:18;;;;;;;;;2.50;2.50;;;;;20.44;37.05;101304.88;5098796;27;45478;-53
2021/11/22 03:35:45;;;;;;;;;3.50;2.50;;;;;20.47;37.11;101316.09;5098712;27;45434;-55
2021/11/22 03:38:13;;;;;;;;;1.75;1.75;;;;;20.51;37.38;101314.16;5098076;27;46503;-51
2021/11/22 03:40:40;;;;;;;;;4.25;4.00;;;;;20.54;37.38;101316.66;5098054;27;45754;-54
2021/11/22 03:45:35;;;;;;;;;5.50;2.25;;;;;20.65;37.13;101322.28;5098463;27;45358;-45
2021/11/22 03:48:00;;;;;;;;;2.00;1.50;;;;;20.68;37.58;101318.63;5098053;27;46310;-46
2021/11/22 03:50:26;;;;;;;;;1.50;1.50;;;;;20.72;36.96;101329.84;5098095;27;45315;-49
2021/11/22 03:52:51;;;;;;;;;4.50;2.75;;;;;20.75;37.39;101335.84;5098344;27;45281;-54
2021/11/22 03:55:17;;;;;;;;;2.50;2.25;;;;;20.79;37.13;101337.44;5098199;27;45231;-52
2021/11/22 03:57:42;;;;;;;;;2.00;2.00;;;;;20.81;36.98;101335.59;5097960;27;45375;-44
2021/11/22 04:00:10;;;;;;;;;2.50;2.00;;;;;20.86;37.06;101335.34;5097825;27;45242;-47
2021/11/22 04:02:35;;;;;;;;;2.50;2.50;;;;;20.88;37.04;101346.69;5098083;27;45352;-45
2021/11/22 04:05:01;;;;;;;;;4.00;3.25;;;;;20.91;37.03;101346.50;5098063;27;45395;-44
2021/11/22 04:07:27;;;;;;;;;3.75;2.00;;;;;20.94;37.23;101350.78;5097478;27;45412;-52
2021/11/22 04:09:54;;;;;;;;;1.75;1.75;;;;;20.95;36.98;101352.47;5097551;27;45382;-47
2021/11/22 04:12:19;;;;;;;;;4.00;2.00;;;;;20.95;36.89;101353.34;5098020;27;45315;-55
2021/11/22 04:14:45;;;;;;;;;2.25;2.25;;;;;20.98;36.84;101369.00;5098073;27;45647;-54
2021/11/22 04:17:10;;;;;;;;;3.00;3.00;;;;;20.98;36.74;101363.75;5097367;27;45552;-54
2021/11/22 04:19:36;;;;;;;;;4.00;2.00;;;;;21.00;36.94;101364.50;5079168;27;45314;-44
2021/11/22 04:22:02;;;;;;;;;3.25;2.00;;;;;21.00;36.70;101368.94;5097775;27;45323;-53
2021/11/22 04:24:27;;;;;;;;;2.50;2.50;;;;;20.97;36.57;101372.56;5097679;27;45250;-58
2021/11/22 04:26:53;;;;;;;;;1.50;1.50;;;;;20.97;36.90;101375.22;5097653;27;46598;-59
2021/11/22 04:29:18;;;;;;;;;3.75;3.00;;;;;21.03;36.73;101381.97;5097384;27;45339;-55
2021/11/22 04:31:44;;;;;;;;;3.25;2.00;;;;;21.01;36.52;101379.38;5097627;27;45217;-52
2021/11/22 04:34:09;;;;;;;;;2.75;2.00;;;;;21.03;36.66;101389.88;5097810;27;45225;-57
2021/11/22 04:36:34;;;;;;;;;3.50;2.00;;;;;21.03;36.63;101391.63;5097313;27;45412;-52
2021/11/22 04:39:00;;;;;;;;;2.00;1.50;;;;;21.02;36.74;101390.78;5097321;27;45391;-51
2021/11/22 04:41:25;;;;;;;;;1.00;1.00;;;;;21.04;36.78;101401.25;5097389;27;45285;-57
2021/11/22 04:43:52;;;;;;;;;3.50;3.25;;;;;21.03;36.86;101396.91;5097685;27;45628;-60
2021/11/22 04:46:17;;;;;;;;;3.00;3.00;;;;;21.01;36.19;101397.81;5097095;27;45805;-58
2021/11/22 04:48:43;;;;;;;;;4.00;2.00;;;;;21.00;36.50;101406.66;5097157;27;45401;-53
2021/11/22 04:51:08;;;;;;;;;3.00;3.00;;;;;21.02;36.35;101401.34;5097238;27;45392;-47
2021/11/22 04:53:33;;;;;;;;;5.50;3.25;;;;;21.00;36.73;101409.28;5097224;27;45514;-47
2021/11/22 04:55:59;;;;;;;;;5.50;2.00;;;;;21.01;36.28;101418.06;5096960;27;45366;-48
2021/11/22 04:58:24;;;;;;;;;3.25;3.00;;;;;21.00;36.39;101422.47;5097185;27;45323;-48
2021/11/22 05:00:50;;;;;;;;;2.25;2.00;;;;;20.99;36.42;101422.56;5097121;27;45337;-45
2021/11/22 05:03:15;;;;;;;;;2.00;2.00;;;;;20.99;36.23;101423.44;5095885;27;45501;-49
2021/11/22 05:05:41;;;;;;;;;3.00;3.00;;;;;20.96;36.50;101427.97;5096821;27;46404;-51
2021/11/22 05:08:07;;;;;;;;;1.25;1.25;;;;;20.97;36.47;101437.59;5097131;27;45500;-45
2021/11/22 05:10:37;;;;;;;;;3.50;2.50;;;;;20.96;36.43;101434.09;5096986;27;45347;-43
2021/11/22 05:13:05;;;;;;;;;3.00;2.25;;;;;20.93;36.57;101428.97;5078681;27;45322;-45
2021/11/22 05:15:31;;;;;;;;;4.00;2.25;;;;;20.93;36.64;101428.97;5096719;27;46504;-44
2021/11/22 05:17:56;;;;;;;;;4.75;3.00;;;;;20.92;36.59;101427.25;5095648;27;45281;-45
2021/11/22 05:20:22;;;;;;;;;2.50;2.50;;;;;20.91;36.08;101441.34;5097347;27;45201;-46
2021/11/22 05:22:47;;;;;;;;;2.25;2.00;;;;;20.88;36.52;101436.25;5097991;27;45284;-50
2021/11/22 05:25:13;;;;;;;;;2.00;2.00;;;;;20.88;36.27;101444.16;5100329;27;45351;-46
2021/11/22 05:27:38;;;;;;;;;2.00;2.00;;;;;20.85;36.31;101441.66;5100189;27;45352;-46
2021/11/22 05:30:04;;;;;;;;;3.25;2.50;;;;;20.87;36.30;101444.22;5100380;27;45370;-45
2021/11/22 05:32:29;;;;;;;;;3.75;3.00;;;;;20.85;36.44;101445.13;5100550;27;45542;-43
2021/11/22 05:34:56;;;;;;;;;2.75;1.50;;;;;20.81;36.52;101446.22;5100470;27;45371;-44
2021/11/22 05:37:22;;;;;;;;;5.00;2.00;;;;;20.82;36.52;101454.97;5100161;27;45848;-49
2021/11/22 05:39:48;;;;;;;;;2.00;0.00;;;;;20.80;36.23;101456.81;5100354;27;45248;-49
2021/11/22 05:42:15;;;;;;;;;3.50;2.75;;;;;20.79;36.64;101453.34;5100261;27;45312;-47
2021/11/22 05:44:40;;;;;;;;;5.00;2.00;;;;;20.77;36.68;101460.47;5099878;27;47120;-50
2021/11/22 05:47:09;;;;;;;;;2.00;2.00;;;;;20.76;36.28;101460.53;5100023;27;45288;-46
2021/11/22 05:49:36;;;;;;;;;4.00;2.25;;;;;20.75;36.56;101450.94;5100061;27;45311;-42
2021/11/22 05:52:04;;;;;;;;;2.00;2.00;;;;;20.73;36.61;101468.53;5100260;27;45369;-47
2021/11/22 05:54:31;;;;;;;;;2.50;2.00;;;;;20.69;36.25;101455.50;5099792;27;47199;-47
2021/11/22 05:56:57;;;;;;;;;3.00;3.00;;;;;20.71;36.56;101471.25;5100207;27;45647;-58
2021/11/22 05:59:22;;;;;;;;;3.00;3.00;;;;;20.66;36.42;101463.56;5099931;27;45214;-49
2021/11/22 06:01:47;;;;;;;;;3.00;3.00;;;;;20.67;36.68;101470.53;5099992;27;45299;-46
2021/11/22 06:04:13;;;;;;;;;7.25;4.00;;;;;20.66;36.39;101483.78;5098275;27;47155;-49
2021/11/22 06:06:38;;;;;;;;;3.00;1.50;;;;;20.65;36.69;101479.44;5099472;27;45824;-45
2021/11/22 06:09:04;;;;;;;;;4.00;3.00;;;;;20.64;36.33;101488.25;5099730;27;45486;-53
2021/11/22 06:11:29;;;;;;;;;1.00;1.00;;;;;20.61;36.60;101485.78;5100011;27;45299;-49
2021/11/22 06:13:55;;;;;;;;;3.25;2.25;;;;;20.61;36.73;101491.88;5081585;27;45661;-59
2021/11/22 06:16:20;;;;;;;;;3.25;2.50;;;;;20.61;36.72;101496.31;5099579;27;45403;-48
2021/11/22 06:18:45;;;;;;;;;2.00;2.00;;;;;20.59;36.82;101509.53;5099742;27;45272;-49
2021/11/22 06:21:11;;;;;;;;;6.25;3.00;;;;;20.59;36.47;101503.41;5099897;27;45626;-48
2021/11/22 06:23:36;;;;;;;;;2.00;2.00;;;;;20.57;36.76;101506.09;5099251;27;45459;-46
2021/11/22 06:26:02;;;;;;;;;3.25;2.00;;;;;20.55;36.42;101507.97;5098908;27;45417;-50
2021/11/22 06:28:27;;;;;;;;;2.75;2.75;;;;;20.54;36.69;101519.44;5099844;27;45288;-43
2021/11/22 06:30:53;;;;;;;;;2.25;2.25;;;;;20.52;36.43;101529.19;5099541;27;45398;-50
2021/11/22 06:33:18;;;;;;;;;2.00;2.00;;;;;20.52;36.23;101523.91;5098737;27;45381;-49
2021/11/22 06:35:44;;;;;;;;;4.00;3.75;;;;;20.50;36.80;101546.81;5099075;27;45336;-57
2021/11/22 06:38:09;;;;;;;;;3.00;3.00;;;;;20.49;36.49;101535.44;5099374;27;45343;-51
2021/11/22 06:40:35;;;;;;;;;3.00;3.00;;;;;20.48;36.39;101538.13;5099344;27;45564;-53
2021/11/22 06:43:00;;;;;;;;;4.75;3.50;;;;;20.49;36.66;101540.69;5099200;27;46118;-49
2021/11/22 06:45:27;;;;;;;;;3.00;3.00;;;;;20.53;36.65;101546.69;5099313;27;45375;-60
2021/11/22 06:47:52;;;;;;;;;4.00;4.00;;;;;20.55;36.42;101552.75;5099145;27;45391;-53
2021/11/22 06:50:18;;;;;;;;;3.00;3.00;;;;;20.58;36.94;101559.66;5099258;27;45185;-62
2021/11/22 06:52:44;;;;;;;;;1.75;1.75;;;;;20.62;36.59;101556.81;5098672;27;47326;-60
2021/11/22 06:55:10;;;;;;;;;3.00;3.00;;;;;20.65;36.76;101567.22;5098860;27;45293;-62
2021/11/22 06:57:36;;;;;;;;;2.50;2.50;;;;;20.70;36.73;101570.47;5099106;27;45390;-62
2021/11/22 07:00:07;;;;;;;;;4.00;3.00;;;;;20.74;36.25;101573.00;5099483;27;45351;-64
2021/11/22 07:02:33;;;;;;;;;2.00;2.00;;;;;20.78;36.27;101574.63;5098828;27;46519;-56
2021/11/22 07:04:58;;;;;;;;;4.50;2.75;;;;;20.83;36.86;101584.03;5098888;27;45235;-61
2021/11/22 07:07:25;;;;;;;;;2.75;2.75;;;;;20.87;36.85;101592.63;5098721;27;45292;-47
2021/11/22 07:09:51;;;;;;;;;5.00;5.00;;;;;20.87;35.68;101575.97;5098843;27;45216;-44
2021/11/22 07:12:17;;;;;;;;;6.00;5.00;;;;;20.87;35.55;101587.38;5098609;27;45661;-45
2021/11/22 07:14:43;;;;;;;;;7.00;4.75;;;;;20.85;35.89;101583.94;5098501;27;45354;-50
2021/11/22 07:17:10;;;;;;;;;6.00;5.50;;;;;20.84;35.34;101585.69;5098696;27;45444;-43
2021/11/22 07:19:36;;;;;;;;;6.00;6.00;;;;;20.83;35.43;101601.59;5098819;27;45529;-42
2021/11/22 07:22:06;;;;;;;;;7.50;6.25;;;;;20.79;35.05;101602.63;5098575;27;46429;-43
2021/11/22 07:24:31;;;;;;;;;6.50;6.00;;;;;20.74;35.04;101591.44;5098643;27;46059;-43
2021/11/22 07:26:56;;;;;;;;;7.00;6.75;;;;;20.69;35.04;101597.75;5098602;27;45362;-42
2021/11/22 07:29:22;;;;;;;;;8.75;7.50;;;;;20.64;34.92;101607.66;5098632;27;45401;-41
2021/11/22 07:31:47;;;;;;;;;6.75;6.75;;;;;20.54;34.75;101603.69;5098107;27;45268;-41
2021/11/22 07:34:12;;;;;;;;;8.75;4.75;;;;;20.53;34.78;101609.88;5098130;27;45369;-50
2021/11/22 07:36:38;;;;;;;;;8.25;7.00;;;;;20.50;34.64;101615.28;5098261;27;45310;-42
2021/11/22 07:39:04;;;;;;;;;7.50;6.00;;;;;20.49;34.71;101629.38;5098771;27;45299;-42
2021/11/22 07:41:29;;;;;;;;;7.00;5.25;;;;;20.45;35.12;101627.81;5098427;27;46315;-42
2021/11/22 07:43:55;;;;;;;;;6.00;4.75;;;;;20.44;34.61;101626.94;5098123;27;45363;-45
2021/11/22 07:46:20;;;;;;;;;6.25;5.00;;;;;20.39;35.08;101639.44;5097413;27;45298;-46
2021/11/22 07:48:46;;;;;;;;;6.50;5.75;;;;;20.37;35.22;101652.66;5098339;27;45578;-43
2021/11/22 07:51:11;;;;;;;;;6.00;5.50;;;;;20.34;34.75;101652.78;5097880;27;46175;-44
2021/11/22 07:53:38;;;;;;;;;5.50;4.00;;;;;20.30;35.25;101661.75;5079631;27;45340;-44
2021/11/22 07:56:05;;;;;;;;;3.00;3.00;;;;;20.29;34.94;101669.69;5098396;27;45441;-42
2021/11/22 07:58:31;;;;;;;;;4.50;4.00;;;;;20.24;35.06;101661.97;5080118;27;45327;-42
2021/11/22 08:00:56;;;;;;;;;6.00;6.00;;;;;20.22;34.90;101663.84;5079325;27;46341;-46
2021/11/22 08:03:21;;;;;;;;;4.50;4.50;;;;;20.20;35.63;101668.31;5097684;27;45594;-46
2021/11/22 08:05:49;;;;;;;;;5.25;4.00;;;;;20.17;35.17;101679.81;5097765;27;45278;-51
2021/11/22 08:08:16;;;;;;;;;2.75;1.50;;;;;20.13;35.53;101685.25;5097890;27;45349;-45
2021/11/22 08:10:42;;;;;;;;;5.50;3.75;;;;;20.08;35.73;101673.16;5097579;27;46388;-58
2021/11/22 08:13:09;;;;;;;;;5.00;5.00;;;;;20.05;35.60;101681.16;5097808;27;45410;-51
2021/11/22 08:15:36;;;;;;;;;4.00;4.00;;;;;20.04;35.71;101671.53;5098041;27;45220;-47
2021/11/22 08:18:05;;;;;;;;;8.75;6.00;;;;;20.01;35.60;101679.56;5098116;27;45330;-41
2021/11/22 08:20:32;;;;;;;;;5.50;5.00;;;;;19.99;35.36;101684.03;5096547;27;47023;-40
2021/11/22 08:22:58;;;;;;;;;4.50;4.50;;;;;19.97;35.58;101679.72;5097544;27;45828;-44
2021/11/22 08:25:26;;;;;;;;;4.25;4.00;;;;;19.93;35.63;101690.41;5097752;27;45265;-42
2021/11/22 08:27:54;;;;;;;;;6.75;4.50;;;;;19.92;35.33;101678.16;5097900;27;45554;-43
2021/11/22 08:30:22;;;;;;;;;5.50;4.00;;;;;19.90;35.67;101687.88;5097263;27;46647;-48
2021/11/22 08:32:50;;;;;;;;;3.25;3.25;;;;;19.89;35.40;101690.59;5097421;27;45879;-45
2021/11/22 08:35:17;;;;;;;;;6.25;4.75;;;;;19.85;35.72;101684.53;5097617;27;45681;-48
2021/11/22 08:37:43;;;;;;;;;4.50;4.50;;;;;19.85;35.94;101683.69;5097714;27;45556;-41
2021/11/22 08:40:11;;;;;;;;;4.50;4.50;;;;;19.84;35.61;101695.13;5097232;27;45445;-41
2021/11/22 08:42:37;;;;;;;;;6.75;5.00;;;;;19.79;35.32;101700.56;5097174;27;45382;-41
2021/11/22 08:45:03;;;;;;;;;4.00;4.00;;;;;19.76;35.44;101698.91;5079063;27;45184;-45
2021/11/22 08:47:29;;;;;;;;;7.25;5.75;;;;;19.71;35.56;101697.38;5097407;27;45535;-45
2021/11/22 08:49:55;;;;;;;;;5.00;4.00;;;;;19.70;35.43;101699.13;5096970;27;45323;-46
2021/11/22 08:52:21;;;;;;;;;4.00;4.00;;;;;19.69;35.62;101710.56;5097079;27;45296;-46
2021/11/22 08:54:46;;;;;;;;;8.50;5.50;;;;;19.68;35.34;101706.22;5097242;27;45387;-40
2021/11/22 08:57:12;;;;;;;;;4.75;4.75;;;;;19.64;35.38;101712.53;5097101;27;45383;-47
2021/11/22 08:59:39;;;;;;;;;4.25;4.25;;;;;19.62;35.54;101711.72;5096923;27;46547;-41
2021/11/22 09:02:05;;;;;;;;;4.00;2.75;;;;;19.56;36.00;101714.59;5097246;27;45337;-44
2021/11/22 09:04:30;;;;;;;;;3.50;3.50;;;;;19.58;36.12;101711.00;5097064;27;45534;-48
2021/11/22 09:06:57;;;;;;;;;4.75;4.75;;;;;19.56;35.84;101722.47;5078695;27;45557;-48
2021/11/22 09:09:22;;;;;;;;;5.00;4.75;;;;;19.51;35.93;101711.25;5096779;27;45343;-52
2021/11/22 09:11:48;;;;;;;;;4.00;4.00;;;;;19.51;35.46;101720.03;5096960;27;45446;-51
2021/11/22 09:14:14;;;;;;;;;3.25;3.25;;;;;19.47;35.57;101727.16;5096874;27;45390;-54
2021/11/22 09:16:40;;;;;;;;;6.25;5.75;;;;;19.44;35.62;101729.91;5096990;27;45546;-50
2021/11/22 09:19:06;;;;;;;;;6.00;4.00;;;;;19.42;35.53;101731.72;5097037;27;45212;-51
2021/11/22 09:21:32;;;;;;;;;3.25;3.00;;;;;19.40;35.60;101733.56;5096551;27;45464;-53
2021/11/22 09:23:59;;;;;;;;;4.50;4.25;;;;;19.36;35.70;101737.19;5096777;27;45469;-53
2021/11/22 09:26:25;;;;;;;;;6.50;5.00;;;;;19.33;35.46;101737.31;5097105;27;45600;-52
2021/11/22 09:28:51;;;;;;;;;5.00;3.75;;;;;19.34;35.82;101753.94;5096432;27;46309;-47
2021/11/22 09:31:16;;;;;;;;;4.50;4.50;;;;;19.27;35.67;101737.53;5096515;27;45347;-47
2021/11/22 09:33:46;;;;;;;;;4.00;4.00;;;;;19.27;35.70;101754.16;5096829;27;45375;-46
2021/11/22 09:36:12;;;;;;;;;4.25;4.25;;;;;19.26;35.67;101748.94;5095507;27;45723;-45
2021/11/22 09:38:38;;;;;;;;;3.75;3.75;;;;;19.26;35.62;101751.56;5096698;27;45446;-50
2021/11/22 09:41:04;;;;;;;;;3.00;3.00;;;;;19.23;35.67;101751.72;5096158;27;45346;-48
2021/11/22 09:43:30;;;;;;;;;4.25;4.00;;;;;19.19;35.37;101760.59;5096623;27;45398;-46
2021/11/22 09:45:56;;;;;;;;;5.75;4.75;;;;;19.18;35.67;101761.50;5096717;27;45461;-51
2021/11/22 09:48:21;;;;;;;;;4.00;4.00;;;;;19.17;35.80;101776.44;5096308;27;45476;-46
2021/11/22 09:50:47;;;;;;;;;5.75;5.00;;;;;19.15;35.76;101765.94;5096561;27;45276;-51
2021/11/22 09:53:13;;;;;;;;;5.00;4.00;;;;;19.18;36.04;101779.91;5096578;27;45278;-56
2021/11/22 09:55:38;;;;;;;;;3.75;3.75;;;;;19.16;35.20;101783.44;5096936;27;45330;-54
2021/11/22 09:58:07;;;;;;;;;6.00;3.00;;;;;19.12;35.55;101797.63;5096365;27;45332;-54
2021/11/22 10:00:41;;;;;;;;;7.50;5.75;;;;;19.07;35.43;101794.28;5096336;27;45469;-48
2021/11/22 10:03:24;;;;;;;;;3.75;3.75;;;;;19.01;35.32;101789.25;5096735;27;45505;-45
2021/11/22 10:06:02;;;;;;;;;7.50;3.00;;;;;19.00;35.96;101798.88;5068911;27;45321;-59
2021/11/22 10:08:28;;;;;;;;;4.00;3.00;;;;;18.97;35.59;101791.09;5095065;27;46652;-50
2021/11/22 10:10:56;;;;;;;;;5.00;4.50;;;;;19.02;36.02;101795.34;5081205;27;45956;-59
2021/11/22 10:13:58;;;;;;;;;4.00;3.00;;;;;19.01;35.88;101799.75;5099579;27;45460;-54
2021/11/22 10:16:24;;;;;;;;;4.75;4.00;;;;;18.99;35.75;101805.03;5016533;28;45384;-54
2021/11/22 10:18:59;;;;;;;;;6.25;4.00;;;;;18.95;35.83;101794.69;5082368;27;45638;-62
2021/11/22 10:21:34;;;;;;;;;5.00;3.50;;;;;18.92;35.43;101805.25;5099340;27;45394;-44
2021/11/22 10:24:06;;;;;;;;;3.00;3.00;;;;;18.92;35.49;101797.38;5080984;27;45491;-56
2021/11/22 10:27:00;;;;;;;;;4.00;4.00;;;;;18.97;35.77;101819.13;5099769;27;45991;-57
2021/11/22 10:29:28;;;;;;;;;3.00;3.00;;;;;19.05;35.96;101819.72;5081526;27;45719;-56
2021/11/22 10:32:03;;;;;;;;;3.75;2.25;;;;;19.11;35.77;101816.91;5099252;27;45430;-54
2021/11/22 10:34:35;;;;;;;;;2.25;2.25;;;;;19.19;36.04;101803.50;5081345;27;45349;-58
2021/11/22 10:37:05;;;;;;;;;4.25;2.75;;;;;19.25;35.67;101815.56;5099329;27;45181;-51
2021/11/22 10:39:33;;;;;;;;;4.75;3.50;;;;;19.29;36.13;101818.03;5080507;27;48175;-45
2021/11/22 10:41:59;;;;;;;;;4.50;3.00;;;;;19.35;35.71;101809.06;5099170;27;45189;-55
2021/11/22 10:44:30;;;;;;;;;3.00;3.00;;;;;19.40;35.86;101812.41;5099151;27;45191;-43
2021/11/22 10:47:09;;;;;;;;;3.00;3.00;;;;;19.44;35.89;101819.28;5099388;27;45386;-48
2021/11/22 10:49:46;;;;;;;;;4.00;4.00;;;;;19.50;35.63;101822.59;5098871;27;46459;-49
2021/11/22 10:54:57;;;;;;;;;2.50;2.50;;;;;19.55;35.57;101828.56;5098984;27;45328;-46
2021/11/22 10:57:31;;;;;;;;;3.00;2.00;;;;;19.55;35.28;101832.06;5099025;27;45460;-52
2021/11/22 10:59:56;;;;;;;;;3.25;2.25;;;;;19.58;35.53;101833.69;5096200;27;46640;-45
2021/11/22 11:02:39;;;;;;;;;2.50;2.50;;;;;19.54;35.58;101809.28;5098214;27;45366;-54
2021/11/22 11:05:04;;;;;;;;;2.00;2.00;;;;;19.59;35.04;101830.16;5097738;27;45397;-43
2021/11/22 11:07:29;;;;;;;;;1.50;1.00;;;;;19.60;35.39;101831.88;5098194;27;45659;-49
2021/11/22 11:09:55;;;;;;;;;2.00;2.00;;;;;19.59;35.21;101832.78;5098418;27;45299;-44
2021/11/22 11:12:25;;;;;;;;;3.00;3.00;;;;;19.61;35.06;101833.59;5098650;27;45323;-44
2021/11/22 11:14:56;;;;;;;;;3.00;3.00;;;;;19.60;35.42;101824.00;5098855;27;45427;-46
2021/11/22 11:17:35;;;;;;;;;4.25;4.00;;;;;19.56;35.39;101823.25;5080920;27;45407;-54
2021/11/22 11:20:28;;;;;;;;;7.25;5.50;;;;;19.63;35.49;101823.91;5097081;27;46522;-44
2021/11/22 11:22:54;;;;;;;;;5.50;5.00;;;;;19.63;35.36;101827.38;5095597;27;45868;-43
2021/11/22 11:25:22;;;;;;;;;6.75;5.25;;;;;19.66;35.03;101826.44;5098563;27;45331;-46
2021/11/22 11:27:48;;;;;;;;;6.50;5.75;;;;;19.67;35.57;101825.50;5098845;27;45353;-43